createdAt,value
2018-04-04T00:01:37.962Z,10.43
2018-04-04T00:04:06.289Z,10.44
2018-04-04T00:06:34.625Z,10.47
2018-04-04T00:09:03.702Z,10.50
2018-04-04T00:11:32.194Z,10.52
2018-04-04T00:14:00.561Z,10.56
2018-04-04T00:16:28.949Z,10.57
2018-04-04T00:18:57.251Z,10.58
2018-04-04T00:21:26.292Z,10.59
2018-04-04T00:23:54.604Z,10.59
2018-04-04T00:26:22.984Z,10.57
2018-04-04T00:28:51.284Z,10.56
2018-04-04T00:31:19.589Z,10.56
2018-04-04T00:33:48.668Z,10.54
2018-04-04T00:36:16.989Z,10.47
2018-04-04T00:38:45.311Z,10.46
2018-04-04T00:41:13.614Z,10.54
2018-04-04T00:43:41.913Z,10.63
2018-04-04T00:46:10.989Z,10.70
2018-04-04T00:48:39.311Z,10.75
2018-04-04T00:51:07.617Z,10.79
2018-04-04T00:53:35.949Z,10.80
2018-04-04T00:56:05.031Z,10.82
2018-04-04T00:58:33.354Z,10.86
2018-04-04T01:01:01.680Z,10.91
2018-04-04T01:03:29.984Z,10.95
2018-04-04T01:05:59.146Z,10.99
2018-04-04T01:08:27.472Z,11.01
2018-04-04T01:10:56.539Z,11.04
2018-04-04T01:13:24.855Z,11.07
2018-04-04T01:15:53.940Z,11.09
2018-04-04T01:18:22.338Z,11.11
2018-04-04T01:20:51.394Z,11.13
2018-04-04T01:23:19.702Z,11.13
2018-04-04T01:25:48.030Z,11.13
2018-04-04T01:28:16.339Z,11.11
2018-04-04T01:30:45.428Z,11.09
2018-04-04T01:33:13.756Z,11.04
2018-04-04T01:35:42.830Z,11.00
2018-04-04T01:38:11.894Z,10.92
2018-04-04T01:40:40.227Z,10.83
2018-04-04T01:43:08.523Z,10.75
2018-04-04T01:45:37.614Z,10.66
2018-04-04T01:48:06.694Z,10.59
2018-04-04T01:50:34.992Z,10.54
2018-04-04T01:53:04.082Z,10.49
2018-04-04T01:55:32.494Z,10.43
2018-04-04T01:58:00.790Z,10.37
2018-04-04T02:00:29.102Z,10.29
2018-04-04T02:02:57.414Z,10.25
2018-04-04T02:05:26.488Z,10.26
2018-04-04T02:07:54.798Z,10.27
2018-04-04T02:10:23.858Z,10.31
2018-04-04T02:12:52.163Z,10.31
2018-04-04T02:15:20.485Z,10.30
2018-04-04T02:17:48.789Z,10.25
2018-04-04T02:20:17.120Z,10.18
2018-04-04T02:22:46.199Z,10.13
2018-04-04T02:25:14.528Z,10.08
2018-04-04T02:27:42.835Z,10.09
2018-04-04T02:30:11.158Z,10.04
2018-04-04T02:32:40.231Z,9.96
2018-04-04T02:35:08.525Z,9.91
2018-04-04T02:37:36.840Z,9.89
2018-04-04T02:40:05.160Z,9.85
2018-04-04T02:42:33.473Z,9.85
2018-04-04T02:45:02.554Z,9.82
2018-04-04T02:47:30.850Z,9.81
2018-04-04T02:49:59.158Z,9.77
2018-04-04T02:52:27.463Z,9.77
2018-04-04T02:54:55.874Z,9.75
2018-04-04T02:57:24.195Z,9.73
2018-04-04T02:59:53.256Z,9.73
2018-04-04T03:02:21.688Z,9.71
2018-04-04T03:04:49.986Z,9.70
2018-04-04T03:07:18.296Z,9.69
2018-04-04T03:09:46.648Z,9.64
2018-04-04T03:12:15.705Z,9.62
2018-04-04T03:14:44.017Z,9.60
2018-04-04T03:17:12.340Z,9.61
2018-04-04T03:19:40.640Z,9.63
2018-04-04T03:22:08.980Z,9.62
2018-04-04T03:24:37.291Z,9.63
2018-04-04T03:27:05.598Z,9.61
2018-04-04T03:29:34.696Z,9.63
2018-04-04T03:32:03.772Z,9.66
2018-04-04T03:34:32.078Z,9.63
2018-04-04T03:37:01.148Z,9.61
2018-04-04T03:39:29.516Z,9.59
2018-04-04T03:41:57.846Z,9.58
2018-04-04T03:44:26.165Z,9.55
2018-04-04T03:46:54.471Z,9.53
2018-04-04T03:49:22.819Z,9.50
2018-04-04T03:51:51.154Z,9.45
2018-04-04T03:54:19.463Z,9.46
2018-04-04T03:56:47.817Z,9.46
2018-04-04T03:59:16.881Z,9.44
2018-04-04T04:01:45.200Z,9.43
2018-04-04T04:04:14.270Z,9.45
2018-04-04T04:06:42.594Z,9.46
2018-04-04T04:09:10.927Z,9.47
2018-04-04T04:11:39.299Z,9.46
2018-04-04T04:14:07.630Z,9.43
2018-04-04T04:16:36.024Z,9.45
2018-04-04T04:19:04.342Z,9.47
2018-04-04T04:21:32.660Z,9.47
2018-04-04T04:24:01.727Z,9.43
2018-04-04T04:26:30.048Z,9.41
2018-04-04T04:28:59.113Z,9.36
2018-04-04T04:31:27.435Z,9.31
2018-04-04T04:33:56.691Z,9.27
2018-04-04T04:36:24.995Z,9.27
2018-04-04T04:38:53.323Z,9.22
2018-04-04T04:41:21.645Z,9.20
2018-04-04T04:43:49.957Z,9.16
2018-04-04T04:46:19.061Z,9.17
2018-04-04T04:48:48.120Z,9.18
2018-04-04T04:51:16.466Z,9.19
2018-04-04T04:53:44.816Z,9.18
2018-04-04T04:56:13.147Z,9.18
2018-04-04T04:58:41.449Z,9.14
2018-04-04T05:01:09.767Z,9.14
2018-04-04T05:03:38.855Z,9.14
2018-04-04T05:06:07.932Z,9.16
2018-04-04T05:08:36.269Z,9.15
2018-04-04T05:11:04.587Z,9.13
2018-04-04T05:13:33.013Z,9.13
2018-04-04T05:16:01.963Z,9.13
2018-04-04T05:18:30.539Z,9.14
2018-04-04T05:20:58.907Z,9.19
2018-04-04T05:23:27.219Z,9.21
2018-04-04T05:25:55.535Z,9.23
2018-04-04T05:28:24.656Z,9.26
2018-04-04T05:30:52.982Z,9.28
2018-04-04T05:33:21.327Z,9.31
2018-04-04T05:35:49.644Z,9.33
2018-04-04T05:38:17.995Z,9.37
2018-04-04T05:40:46.305Z,9.41
2018-04-04T05:43:14.643Z,9.47
2018-04-04T05:45:42.965Z,9.54
2018-04-04T05:48:11.293Z,9.62
2018-04-04T05:50:39.621Z,9.66
2018-04-04T05:53:07.931Z,9.71
2018-04-04T05:55:36.243Z,9.76
2018-04-04T05:58:22.157Z,9.83
2018-04-04T06:00:50.602Z,9.97
2018-04-04T06:03:19.238Z,10.07
2018-04-04T06:05:47.558Z,10.16
2018-04-04T06:08:16.678Z,10.26
2018-04-04T06:10:45.755Z,10.34
2018-04-04T06:13:14.843Z,10.42
2018-04-04T06:15:43.931Z,10.52
2018-04-04T06:18:12.290Z,10.65
2018-04-04T06:20:40.619Z,10.78
2018-04-04T06:23:09.697Z,10.91
2018-04-04T06:25:38.019Z,11.05
2018-04-04T06:28:06.383Z,11.16
2018-04-04T06:30:34.710Z,11.22
2018-04-04T06:33:03.014Z,11.22
2018-04-04T06:35:31.307Z,11.20
2018-04-04T06:37:59.650Z,11.15
2018-04-04T06:40:27.943Z,11.10
2018-04-04T06:42:56.283Z,11.07
2018-04-04T06:45:24.589Z,11.04
2018-04-04T06:47:52.923Z,11.02
2018-04-04T06:50:22.014Z,11.01
2018-04-04T06:52:51.119Z,11.01
2018-04-04T06:55:20.192Z,11.07
2018-04-04T06:57:48.569Z,11.13
2018-04-04T07:00:16.870Z,11.21
2018-04-04T07:02:45.194Z,11.33
2018-04-04T07:05:13.524Z,11.49
2018-04-04T07:07:42.079Z,11.67
2018-04-04T07:10:10.358Z,11.89
2018-04-04T07:12:38.687Z,12.16
2018-04-04T07:15:07.801Z,12.50
2018-04-04T07:17:36.893Z,12.80
2018-04-04T07:20:06.000Z,13.09
2018-04-04T07:22:35.077Z,13.36
2018-04-04T07:25:04.284Z,13.58
2018-04-04T07:27:32.599Z,13.81
2018-04-04T07:30:01.112Z,14.02
2018-04-04T07:32:30.859Z,14.19
2018-04-04T07:34:59.241Z,14.28
2018-04-04T07:37:27.645Z,14.35
2018-04-04T07:39:56.742Z,14.33
2018-04-04T07:42:25.831Z,14.36
2018-04-04T07:44:54.909Z,14.39
2018-04-04T07:47:23.385Z,14.40
2018-04-04T07:49:51.705Z,14.42
2018-04-04T07:52:20.056Z,14.46
2018-04-04T07:54:48.465Z,14.51
2018-04-04T07:57:17.555Z,14.62
2018-04-04T07:59:46.675Z,14.82
2018-04-04T08:02:15.764Z,15.04
2018-04-04T08:04:44.847Z,15.20
2018-04-04T08:07:13.194Z,15.31
2018-04-04T08:09:41.514Z,15.40
2018-04-04T08:12:10.618Z,15.47
2018-04-04T08:14:38.948Z,15.54
2018-04-04T08:17:07.271Z,15.66
2018-04-04T08:19:35.583Z,15.81
2018-04-04T08:22:03.894Z,15.97
2018-04-04T08:24:32.236Z,16.11
2018-04-04T08:27:00.563Z,16.29
2018-04-04T08:29:29.170Z,16.47
2018-04-04T08:31:57.489Z,16.65
2018-04-04T08:34:25.900Z,16.80
2018-04-04T08:36:54.126Z,16.87
2018-04-04T08:39:22.449Z,16.97
2018-04-04T08:41:50.759Z,17.10
2018-04-04T08:44:19.108Z,17.20
2018-04-04T08:46:47.453Z,17.31
2018-04-04T08:49:15.777Z,17.41
2018-04-04T08:51:44.114Z,17.55
2018-04-04T08:54:12.487Z,17.67
2018-04-04T08:56:40.805Z,17.80
2018-04-04T08:59:09.123Z,17.91
2018-04-04T09:01:38.894Z,17.95
2018-04-04T09:04:07.226Z,17.97
2018-04-04T09:06:35.548Z,17.98
2018-04-04T09:09:05.414Z,17.97
2018-04-04T09:11:33.744Z,18.00
2018-04-04T09:14:02.823Z,18.13
2018-04-04T09:16:32.586Z,18.42
2018-04-04T09:19:00.915Z,18.67
2018-04-04T09:21:29.251Z,19.11
2018-04-04T09:23:57.556Z,19.50
2018-04-04T09:26:25.856Z,19.65
2018-04-04T09:28:54.158Z,19.78
2018-04-04T09:31:23.234Z,20.09
2018-04-04T09:33:51.577Z,20.47
2018-04-04T09:36:19.892Z,20.80
2018-04-04T09:38:48.211Z,21.09
2018-04-04T09:41:16.576Z,21.41
2018-04-04T09:43:44.884Z,21.77
2018-04-04T09:46:13.184Z,21.90
2018-04-04T09:48:41.510Z,21.84
2018-04-04T09:51:09.818Z,21.85
2018-04-04T09:53:38.914Z,21.88
2018-04-04T09:56:07.989Z,22.01
2018-04-04T09:58:36.302Z,22.14
2018-04-04T10:01:05.488Z,22.14
2018-04-04T10:03:34.624Z,22.09
2018-04-04T10:06:02.933Z,22.07
2018-04-04T10:08:31.260Z,21.91
2018-04-04T10:11:00.344Z,21.78
2018-04-04T10:13:28.645Z,21.35
2018-04-04T10:15:56.978Z,20.71
2018-04-04T10:18:25.306Z,20.05
2018-04-04T10:20:53.615Z,19.82
2018-04-04T10:23:21.959Z,19.80
2018-04-04T10:25:51.073Z,19.50
2018-04-04T10:28:19.394Z,19.10
2018-04-04T10:30:47.717Z,18.95
2018-04-04T10:33:16.793Z,18.97
2018-04-04T10:35:45.095Z,19.02
2018-04-04T10:38:14.198Z,19.05
2018-04-04T10:40:43.262Z,18.96
2018-04-04T10:43:12.166Z,18.50
2018-04-04T10:45:41.266Z,18.21
2018-04-04T10:48:09.606Z,18.26
2018-04-04T10:50:38.027Z,18.47
2018-04-04T10:53:06.277Z,18.63
2018-04-04T10:55:34.620Z,18.61
2018-04-04T10:58:04.440Z,18.70
2018-04-04T11:00:33.506Z,18.93
2018-04-04T11:03:01.840Z,19.19
2018-04-04T11:05:30.150Z,19.36
2018-04-04T11:07:59.231Z,19.38
2018-04-04T11:10:27.534Z,19.38
2018-04-04T11:12:55.845Z,19.34
2018-04-04T11:15:24.914Z,19.29
2018-04-04T11:17:53.214Z,19.27
2018-04-04T11:20:21.530Z,19.12
2018-04-04T11:22:49.822Z,18.93
2018-04-04T11:25:18.138Z,18.82
2018-04-04T11:27:46.442Z,18.72
2018-04-04T11:30:14.756Z,18.55
2018-04-04T11:32:43.066Z,18.45
2018-04-04T11:35:11.394Z,18.48
2018-04-04T11:37:40.526Z,18.47
2018-04-04T11:40:08.836Z,18.53
2018-04-04T11:42:37.141Z,18.28
2018-04-04T11:45:05.447Z,18.01
2018-04-04T11:47:34.541Z,17.99
2018-04-04T11:50:03.617Z,17.89
2018-04-04T11:52:31.920Z,17.72
2018-04-04T11:55:01.014Z,17.59
2018-04-04T11:57:30.112Z,17.41
2018-04-04T11:59:58.441Z,17.25
2018-04-04T12:02:26.753Z,17.12
2018-04-04T12:04:55.088Z,17.03
2018-04-04T12:07:23.419Z,17.25
2018-04-04T12:09:51.751Z,17.61
2018-04-04T12:12:20.082Z,17.91
2018-04-04T12:14:49.152Z,18.29
2018-04-04T12:17:17.513Z,18.70
2018-04-04T12:19:45.833Z,19.05
2018-04-04T12:22:14.214Z,19.12
2018-04-04T12:24:44.179Z,19.09
2018-04-04T12:27:12.544Z,19.08
2018-04-04T12:29:41.626Z,19.38
2018-04-04T12:32:09.994Z,19.70
2018-04-04T12:34:38.340Z,20.08
2018-04-04T12:37:06.689Z,20.14
2018-04-04T12:39:35.824Z,20.12
2018-04-04T12:42:04.130Z,20.07
2018-04-04T12:44:32.428Z,19.94
2018-04-04T12:47:00.728Z,19.76
2018-04-04T12:49:29.921Z,19.61
2018-04-04T12:51:58.215Z,19.38
2018-04-04T12:54:27.336Z,19.18
2018-04-04T12:56:55.671Z,18.90
2018-04-04T12:59:24.004Z,18.68
2018-04-04T13:01:52.373Z,18.45
2018-04-04T13:04:20.738Z,17.92
2018-04-04T13:06:49.044Z,17.39
2018-04-04T13:09:23.240Z,16.94
2018-04-04T13:11:52.341Z,16.60
2018-04-04T13:14:21.440Z,16.30
2018-04-04T13:16:50.533Z,15.97
2018-04-04T13:19:19.623Z,15.82
2018-04-04T13:21:47.956Z,15.89
2018-04-04T13:24:16.356Z,16.55
2018-04-04T13:26:45.051Z,17.56
2018-04-04T13:29:13.379Z,18.26
2018-04-04T13:31:42.639Z,19.78
2018-04-04T13:34:10.974Z,21.30
2018-04-04T13:36:39.272Z,22.11
2018-04-04T13:39:07.572Z,21.38
2018-04-04T13:41:35.924Z,21.24
2018-04-04T13:44:05.044Z,21.42
2018-04-04T13:46:33.344Z,22.17
2018-04-04T13:49:01.655Z,21.96
2018-04-04T13:51:29.995Z,21.82
2018-04-04T13:53:59.362Z,21.32
2018-04-04T13:56:27.711Z,20.64
2018-04-04T13:58:56.024Z,19.91
2018-04-04T14:01:24.611Z,18.83
2018-04-04T14:03:53.134Z,17.61
2018-04-04T14:06:23.024Z,16.97
2018-04-04T14:08:51.632Z,16.63
2018-04-04T14:11:20.007Z,16.40
2018-04-04T14:13:48.359Z,16.15
2018-04-04T14:16:17.454Z,16.06
2018-04-04T14:18:46.556Z,15.98
2018-04-04T14:21:15.735Z,16.33
2018-04-04T14:23:44.342Z,16.42
2018-04-04T14:26:13.417Z,16.42
2018-04-04T14:28:41.753Z,16.46
2018-04-04T14:31:10.303Z,16.52
2018-04-04T14:33:39.380Z,16.72
2018-04-04T14:36:07.750Z,17.13
2018-04-04T14:38:36.144Z,17.74
2018-04-04T14:41:04.494Z,18.22
2018-04-04T14:43:32.819Z,18.48
2018-04-04T14:46:01.142Z,19.72
2018-04-04T14:48:29.493Z,22.31
2018-04-04T14:50:58.607Z,24.83
2018-04-04T14:53:27.748Z,26.00
2018-04-04T14:55:56.053Z,24.74
2018-04-04T14:58:24.363Z,23.51
2018-04-04T15:00:53.432Z,22.66
2018-04-04T15:03:21.765Z,22.10
2018-04-04T15:05:50.156Z,21.62
2018-04-04T15:08:18.565Z,21.22
2018-04-04T15:10:46.876Z,20.88
2018-04-04T15:13:15.230Z,20.49
2018-04-04T15:15:43.685Z,20.16
2018-04-04T15:18:12.232Z,19.75
2018-04-04T15:20:40.569Z,19.38
2018-04-04T15:23:09.593Z,18.94
2018-04-04T15:25:37.952Z,18.27
2018-04-04T15:28:06.263Z,17.65
2018-04-04T15:30:34.596Z,17.10
2018-04-04T15:33:05.680Z,16.47
2018-04-04T15:35:34.523Z,15.80
2018-04-04T15:38:02.855Z,15.27
2018-04-04T15:40:31.152Z,14.78
2018-04-04T15:42:59.511Z,14.34
2018-04-04T15:45:27.817Z,14.00
2018-04-04T15:47:56.133Z,13.65
2018-04-04T15:50:24.485Z,13.28
2018-04-04T15:52:53.577Z,12.98
2018-04-04T15:55:21.881Z,12.71
2018-04-04T15:57:50.998Z,12.51
2018-04-04T16:00:19.328Z,12.37
2018-04-04T16:02:47.647Z,12.21
2018-04-04T16:05:15.976Z,12.14
2018-04-04T16:07:44.295Z,12.14
2018-04-04T16:10:12.658Z,12.17
2018-04-04T16:12:40.980Z,12.32
2018-04-04T16:15:09.362Z,12.58
2018-04-04T16:17:37.671Z,12.83
2018-04-04T16:20:05.978Z,13.05
2018-04-04T16:22:34.275Z,13.26
2018-04-04T16:25:02.579Z,13.58
2018-04-04T16:27:30.902Z,15.39
2018-04-04T16:29:59.258Z,17.54
2018-04-04T16:32:28.411Z,18.78
2018-04-04T16:34:56.725Z,19.75
2018-04-04T16:37:25.047Z,20.24
2018-04-04T16:39:53.445Z,20.13
2018-04-04T16:42:21.757Z,20.40
2018-04-04T16:44:50.831Z,20.82
2018-04-04T16:47:19.195Z,20.82
2018-04-04T16:49:47.488Z,20.81
2018-04-04T16:52:17.534Z,20.83
2018-04-04T16:54:46.629Z,20.85
2018-04-04T16:57:15.702Z,20.90
2018-04-04T16:59:44.022Z,20.93
2018-04-04T17:02:13.173Z,20.98
2018-04-04T17:04:42.487Z,20.80
2018-04-04T17:07:11.557Z,20.62
2018-04-04T17:09:39.874Z,20.49
2018-04-04T17:12:08.188Z,20.35
2018-04-04T17:14:36.517Z,20.08
2018-04-04T17:17:04.829Z,19.89
2018-04-04T17:19:33.144Z,19.70
2018-04-04T17:22:01.449Z,19.44
2018-04-04T17:24:29.783Z,19.08
2018-04-04T17:26:58.959Z,18.82
2018-04-04T17:29:27.268Z,18.53
2018-04-04T17:31:56.367Z,17.80
2018-04-04T17:34:26.309Z,16.95
2018-04-04T17:36:54.604Z,16.26
2018-04-04T17:39:22.911Z,15.64
2018-04-04T17:41:51.217Z,15.16
2018-04-04T17:44:20.287Z,14.78
2018-04-04T17:46:48.774Z,14.51
2018-04-04T17:49:17.277Z,14.17
2018-04-04T17:51:46.715Z,13.86
2018-04-04T17:54:15.937Z,13.56
2018-04-04T17:56:45.966Z,13.28
2018-04-04T17:59:14.555Z,13.04
2018-04-04T18:01:43.693Z,12.79
2018-04-04T18:04:11.999Z,12.55
2018-04-04T18:06:41.411Z,12.36
2018-04-04T18:09:10.482Z,12.20
2018-04-04T18:11:38.799Z,12.00
2018-04-04T18:14:07.124Z,11.83
2018-04-04T18:16:35.529Z,11.67
2018-04-04T18:19:04.658Z,11.49
2018-04-04T18:21:33.094Z,11.32
2018-04-04T18:24:01.357Z,11.16
2018-04-04T18:26:29.703Z,11.03
2018-04-04T18:28:58.079Z,10.91
2018-04-04T18:31:27.202Z,10.79
2018-04-04T18:33:56.165Z,10.70
2018-04-04T18:36:25.687Z,10.55
2018-04-04T18:38:54.769Z,10.49
2018-04-04T18:41:23.093Z,10.43
2018-04-04T18:43:51.409Z,10.37
2018-04-04T18:46:19.718Z,10.26
2018-04-04T18:48:48.782Z,10.21
2018-04-04T18:51:17.116Z,10.16
2018-04-04T18:53:45.447Z,10.13
2018-04-04T18:56:13.767Z,10.12
2018-04-04T18:58:42.837Z,10.13
2018-04-04T19:01:11.157Z,10.13
2018-04-04T19:03:39.449Z,10.13
2018-04-04T19:06:07.742Z,10.13
2018-04-04T19:08:36.054Z,10.12
2018-04-04T19:11:04.366Z,10.17
2018-04-04T19:13:33.425Z,10.19
2018-04-04T19:16:01.729Z,10.21
2018-04-04T19:18:30.212Z,10.24
2018-04-04T19:20:58.543Z,10.33
2018-04-04T19:23:26.836Z,10.40
2018-04-04T19:25:55.142Z,10.52
2018-04-04T19:28:23.462Z,10.66
2018-04-04T19:30:52.519Z,10.77
2018-04-04T19:33:20.835Z,10.89
2018-04-04T19:35:49.922Z,11.00
2018-04-04T19:38:18.983Z,11.08
2018-04-04T19:40:47.283Z,11.15
2018-04-04T19:43:15.631Z,11.21
2018-04-04T19:45:43.973Z,11.22
2018-04-04T19:48:13.097Z,11.20
2018-04-04T19:50:41.459Z,11.17
2018-04-04T19:53:09.809Z,11.14
2018-04-04T19:55:38.125Z,11.12
2018-04-04T19:58:07.200Z,11.14
2018-04-04T20:00:35.524Z,11.19
2018-04-04T20:03:03.867Z,11.24
2018-04-04T20:05:32.161Z,11.24
2018-04-04T20:08:01.223Z,11.25
2018-04-04T20:10:29.564Z,11.27
2018-04-04T20:12:57.881Z,11.28
2018-04-04T20:15:26.207Z,11.27
2018-04-04T20:17:55.274Z,11.27
2018-04-04T20:20:23.593Z,11.22
2018-04-04T20:22:52.662Z,11.23
2018-04-04T20:25:21.006Z,11.26
2018-04-04T20:27:49.311Z,11.29
2018-04-04T20:30:17.672Z,11.33
2018-04-04T20:32:46.126Z,11.31
2018-04-04T20:35:14.471Z,11.30
2018-04-04T20:37:43.633Z,11.27
2018-04-04T20:40:11.931Z,11.24
2018-04-04T20:42:40.251Z,11.19
2018-04-04T20:45:09.388Z,11.17
2018-04-04T20:47:37.702Z,11.17
2018-04-04T20:50:06.003Z,11.17
2018-04-04T20:52:34.303Z,11.15
2018-04-04T20:55:03.382Z,11.14
2018-04-04T20:57:32.492Z,11.11
2018-04-04T21:00:01.568Z,11.09
2018-04-04T21:02:29.934Z,11.08
2018-04-04T21:04:58.939Z,11.07
2018-04-04T21:07:27.279Z,11.05
2018-04-04T21:09:55.601Z,11.06
2018-04-04T21:12:23.928Z,11.07
2018-04-04T21:14:52.268Z,11.03
2018-04-04T21:17:20.600Z,11.02
2018-04-04T21:19:48.890Z,10.96
2018-04-04T21:22:17.211Z,10.86
2018-04-04T21:24:45.573Z,10.81
2018-04-04T21:27:13.940Z,10.81
2018-04-04T21:29:42.263Z,10.79
2018-04-04T21:32:10.574Z,10.78
2018-04-04T21:34:39.648Z,10.80
2018-04-04T21:37:07.954Z,10.83
2018-04-04T21:39:36.280Z,10.82
2018-04-04T21:42:04.568Z,10.79
2018-04-04T21:44:32.922Z,10.70
2018-04-04T21:47:01.234Z,10.63
2018-04-04T21:49:29.563Z,10.55
2018-04-04T21:51:58.705Z,10.48
2018-04-04T21:54:27.035Z,10.45
2018-04-04T21:56:56.102Z,10.49
2018-04-04T21:59:24.400Z,10.53
2018-04-04T22:01:52.688Z,10.53
2018-04-04T22:04:21.747Z,10.50
2018-04-04T22:06:50.060Z,10.44
2018-04-04T22:09:18.376Z,10.39
2018-04-04T22:11:46.673Z,10.38
2018-04-04T22:14:15.000Z,10.41
2018-04-04T22:16:43.326Z,10.41
2018-04-04T22:19:11.638Z,10.43
2018-04-04T22:21:39.936Z,10.45
2018-04-04T22:24:08.258Z,10.48
2018-04-04T22:26:37.328Z,10.49
2018-04-04T22:29:05.642Z,10.51
2018-04-04T22:31:33.938Z,10.56
2018-04-04T22:34:02.233Z,10.60
2018-04-04T22:36:30.535Z,10.63
2018-04-04T22:38:58.864Z,10.65
2018-04-04T22:41:27.160Z,10.66
2018-04-04T22:43:55.452Z,10.67
2018-04-04T22:46:23.754Z,10.66
2018-04-04T22:48:52.048Z,10.63
2018-04-04T22:51:20.350Z,10.61
2018-04-04T22:53:49.426Z,10.58
2018-04-04T22:56:17.720Z,10.53
2018-04-04T22:58:46.800Z,10.50
2018-04-04T23:01:15.164Z,10.47
2018-04-04T23:03:43.440Z,10.44
2018-04-04T23:06:11.878Z,10.42
2018-04-04T23:08:40.944Z,10.39
2018-04-04T23:11:09.263Z,10.36
2018-04-04T23:13:37.559Z,10.35
2018-04-04T23:16:05.862Z,10.39
2018-04-04T23:18:34.172Z,10.45
2018-04-04T23:21:02.454Z,10.48
2018-04-04T23:23:30.778Z,10.50
2018-04-04T23:25:59.077Z,10.51
2018-04-04T23:28:27.436Z,10.53
2018-04-04T23:30:55.742Z,10.56
2018-04-04T23:33:24.048Z,10.58
2018-04-04T23:35:52.338Z,10.63
2018-04-04T23:38:20.664Z,10.66
2018-04-04T23:40:49.619Z,10.70
2018-04-04T23:43:17.932Z,10.73
2018-04-04T23:45:46.244Z,10.75
2018-04-04T23:48:14.543Z,10.76
2018-04-04T23:50:42.840Z,10.76
2018-04-04T23:53:11.911Z,10.77
2018-04-04T23:55:40.214Z,10.79
2018-04-04T23:58:08.540Z,10.81
